Date,TemperatureHighF,TemperatureAvgF,TemperatureLowF,DewpointHighF,DewpointAvgF,DewpointLowF,HumidityHigh,HumidityAvg,HumidityLow,PressureMaxIn,PressureMinIn,WindSpeedMaxMPH,WindSpeedAvgMPH,GustSpeedMaxMPH,PrecipitationSumIn
2013-1-1,21,10,1,11,4,-4,93,76,62,30.21,30.00,2,0,5,0.00
2013-1-2,23,13,3,13,6,-2,85,73,59,30.26,30.13,6,0,8,0.00
2013-1-3,20,8,-1,7,0,-7,79,68,53,30.35,30.23,9,1,12,0.00
2013-1-4,22,9,1,6,0,-5,76,66,48,30.27,30.10,9,0,11,0.00
2013-1-5,23,8,-3,9,0,-8,81,71,53,30.36,30.19,9,1,12,0.00
2013-1-6,24,12,1,11,4,-4,81,70,55,30.30,30.02,8,1,12,0.00
2013-1-7,30,16,6,14,7,0,84,68,47,30.07,29.93,8,1,12,0.00
2013-1-8,32,18,8,16,9,2,80,70,49,30.33,29.99,7,1,11,0.00
2013-1-9,34,21,13,20,13,7,82,70,51,30.34,30.02,10,2,12,0.01
2013-1-10,35,23,12,24,15,8,85,73,60,30.03,29.38,10,2,17,0.00
2013-1-11,37,21,9,28,14,1,91,75,52,29.79,29.30,35,13,48,0.00
2013-1-12,18,7,-3,6,-1,-8,81,69,53,29.88,29.77,14,1,16,0.00
2013-1-13,16,5,-2,8,-2,-10,81,72,64,29.97,29.83,4,0,7,0.00
2013-1-14,13,-1,-11,-2,-10,-17,79,66,47,30.15,29.95,11,1,15,0.00
2013-1-15,15,4,-10,2,-6,-17,75,64,50,30.37,30.13,13,2,17,0.00
2013-1-16,26,12,3,13,3,-4,79,66,53,30.45,30.31,10,2,14,0.00
2013-1-17,31,16,7,16,8,2,82,70,49,30.49,30.33,10,1,12,0.01
2013-1-18,31,16,7,17,9,2,84,72,52,30.41,30.24,7,1,10,0.02
2013-1-19,33,22,8,17,11,3,92,64,45,30.43,30.28,7,1,10,0.00
2013-1-20,33,17,6,15,8,1,83,68,44,30.35,30.18,7,1,10,0.00
2013-1-21,36,19,9,17,8,3,79,64,37,30.34,30.20,9,1,10,0.00
2013-1-22,35,19,7,16,8,1,81,64,38,30.36,30.24,7,1,10,0.00
2013-1-23,34,20,9,17,9,1,75,63,42,30.37,30.25,7,1,9,0.00
2013-1-24,34,26,16,24,17,9,80,68,50,30.29,30.20,6,0,8,0.00
2013-1-25,38,32,29,31,28,23,92,83,75,30.28,30.14,5,0,6,0.04
2013-1-26,41,35,32,37,32,30,94,91,81,30.14,29.75,7,0,11,0.17
2013-1-27,41,35,32,36,32,30,95,90,78,29.86,29.66,8,2,14,0.12
2013-1-28,35,30,21,32,28,16,100,91,82,29.76,29.62,11,2,14,0.20
2013-1-29,28,18,8,21,13,3,86,79,61,29.95,29.71,10,1,14,0.10
2013-1-30,26,19,14,20,16,9,92,85,73,30.10,29.95,10,2,14,0.00
2013-1-31,21,17,12,19,15,9,91,89,87,30.22,30.08,5,1,10,0.00
2013-2-1,40,33,22,28,23,17,82,65,55,30.28,30.15,13,3,17,0.06
2013-2-2,41,25,14,26,18,10,92,75,54,30.43,30.27,12,1,19,0.00
2013-2-3,37,26,18,24,18,13,84,73,53,30.29,30.02,7,1,9,0.00
2013-2-4,39,25,13,25,17,9,87,73,55,30.14,30.01,8,0,12,0.00
2013-2-5,43,27,15,24,18,11,84,69,41,30.13,29.89,11,2,13,0.00
2013-2-6,43,31,21,30,23,16,89,73,53,30.05,29.85,9,1,12,0.00
2013-2-7,42,28,19,24,18,11,92,69,34,30.18,29.96,11,2,15,0.00
2013-2-8,46,33,20,28,20,12,76,59,37,29.98,29.54,23,4,32,0.00
2013-2-9,38,31,22,29,24,12,90,76,60,29.65,29.49,15,1,18,0.04
2013-2-10,34,24,14,21,16,8,85,69,47,29.82,29.65,11,1,18,0.01
2013-2-11,28,21,11,21,15,2,90,76,55,30.03,29.79,17,3,22,0.03
2013-2-12,30,18,4,15,7,-2,88,64,44,30.16,30.03,7,1,11,0.01
2013-2-13,37,28,22,22,18,14,77,64,50,30.18,30.02,17,3,21,0.01
2013-2-14,41,29,22,24,18,12,83,65,38,30.20,30.06,5,0,9,0.00
2013-2-15,40,27,18,21,16,11,81,63,38,30.36,30.20,12,2,16,0.00
2013-2-16,44,26,14,22,14,8,79,63,38,30.39,30.06,8,2,14,0.00
2013-2-17,46,31,17,22,16,10,77,58,33,30.08,29.59,24,6,30,0.00
2013-2-18,35,27,20,17,11,6,65,52,32,30.03,29.82,29,3,41,0.00
2013-2-19,47,27,12,19,11,3,70,52,24,30.00,29.59,12,2,16,0.00
2013-2-20,45,32,21,26,18,11,73,56,35,29.59,29.39,19,5,33,0.00
2013-2-21,38,33,30,25,20,18,76,61,47,29.72,29.51,15,5,19,0.00
2013-2-23,28,26,23,25,23,20,90,89,87,29.68,29.63,10,3,18,0.00
2013-2-24,33,24,18,23,17,10,90,76,53,30.02,29.67,14,3,19,0.15
2013-2-25,35,21,7,18,11,2,83,66,41,30.12,29.84,11,2,14,0.00
2013-2-26,32,25,16,21,15,7,88,67,46,30.12,29.77,15,1,20,0.01
2013-2-27,38,21,8,16,8,3,79,59,31,30.27,30.10,11,1,18,0.01
2013-2-28,37,24,8,20,10,0,75,57,36,30.37,30.24,17,2,29,0.00
2013-3-1,41,31,24,29,24,17,89,75,55,30.43,30.30,7,1,20,0.01
2013-3-2,52,34,20,29,23,16,87,66,38,30.44,30.11,10,1,14,0.00
2013-3-3,51,38,29,35,28,24,89,69,42,30.11,29.76,30,4,41,0.10
2013-3-4,45,34,21,38,25,12,93,71,44,30.20,29.74,21,3,30,0.04
2013-3-5,48,29,15,18,12,6,77,53,20,30.30,30.04,10,2,14,0.00
2013-3-6,59,38,22,29,20,13,71,50,24,30.08,29.77,24,3,29,0.00
2013-3-7,61,45,32,27,22,16,68,43,18,29.92,29.79,23,3,29,0.00
2013-3-8,54,41,34,34,26,17,89,57,28,29.83,29.60,25,4,33,0.00
2013-3-9,39,33,27,33,27,14,93,80,48,30.03,29.55,25,6,33,0.01
2013-3-10,49,33,21,23,18,14,83,58,31,30.20,30.02,12,2,19,0.00
2013-3-11,50,36,23,27,22,18,82,60,32,30.17,29.99,19,5,24,0.00
2013-3-12,55,42,29,30,27,23,82,56,34,30.23,30.07,15,1,19,0.00
2013-3-13,64,43,27,31,26,22,84,55,23,30.35,30.22,12,1,15,0.00
2013-3-14,67,47,30,31,26,22,73,48,20,30.37,30.17,17,2,21,0.00
2013-3-15,68,48,34,32,28,25,70,48,22,30.21,29.90,22,2,27,0.00
2013-3-16,60,47,37,41,31,27,70,53,35,29.94,29.75,20,2,26,0.03
2013-3-17,52,42,33,39,26,10,90,57,25,29.84,29.62,32,9,41,0.08
2013-3-18,51,39,26,18,14,10,61,37,23,29.96,29.84,27,8,34,0.00
2013-3-19,53,40,30,21,10,-3,59,32,11,30.15,29.92,13,2,21,0.00
2013-3-20,54,38,24,30,15,5,67,40,23,30.16,29.79,17,1,25,0.00
2013-3-21,49,39,30,37,27,12,92,66,24,29.85,29.65,20,4,25,0.32
2013-3-22,48,33,23,22,18,8,81,57,21,29.84,29.55,29,5,38,0.00
2013-3-23,33,26,18,20,12,5,83,56,36,30.05,29.73,19,5,28,0.00
2013-3-24,34,23,16,21,11,4,75,59,32,30.12,29.99,20,2,26,0.00
2013-3-25,46,26,11,11,6,-4,76,46,15,30.18,30.03,11,2,16,0.00
2013-3-26,59,40,23,22,15,7,56,39,21,30.09,29.80,22,5,28,0.00
2013-3-27,65,48,33,30,23,15,72,41,16,30.00,29.86,18,4,23,0.00
2013-3-28,70,50,33,27,22,19,60,36,18,30.05,29.92,18,3,24,0.00
2013-3-29,66,51,39,33,28,22,59,42,24,30.14,30.02,31,4,38,0.00
2013-3-30,68,50,34,34,28,18,80,48,16,30.17,29.98,23,4,37,0.00
2013-3-31,68,49,31,29,23,14,73,41,13,30.11,29.90,29,3,34,0.00
2013-4-1,63,48,34,43,28,19,68,47,33,29.97,29.76,20,2,38,0.01
2013-4-2,56,45,35,37,32,28,83,61,39,29.96,29.83,20,2,35,0.00
2013-4-3,69,49,32,34,28,19,85,49,19,30.11,29.95,15,1,20,0.00
2013-4-4,68,50,32,29,24,20,66,39,19,30.18,29.96,21,3,26,0.00
2013-4-5,69,52,42,42,30,23,76,46,21,29.99,29.74,33,6,61,0.01
2013-4-6,64,48,34,38,31,23,85,58,22,29.99,29.80,27,4,43,0.00
2013-4-7,64,48,33,38,29,20,90,55,23,29.93,29.62,28,6,37,0.00
2013-4-8,61,46,39,40,30,21,95,57,27,29.63,29.30,32,4,41,0.10
2013-4-9,40,28,18,37,24,11,91,82,65,29.97,29.40,22,4,35,0.04
2013-4-10,44,27,11,25,15,6,81,62,32,30.07,29.89,10,1,16,0.04
2013-4-11,54,39,30,37,28,20,82,66,42,29.95,29.77,19,3,26,0.01
2013-4-12,63,47,35,39,29,19,89,56,20,29.91,29.80,13,2,17,0.01
2013-4-13,64,46,31,40,27,22,86,52,21,29.86,29.34,35,7,46,0.13
2013-4-14,53,44,35,39,20,6,89,42,19,29.72,29.50,27,8,33,0.01
2013-4-15,42,35,32,35,29,19,94,81,39,29.69,29.47,7,1,11,0.31
2013-4-16,49,36,26,39,31,23,93,83,66,29.81,29.50,22,6,27,0.18
2013-4-17,32,26,20,24,19,11,92,76,50,30.04,29.71,13,2,18,0.23
2013-4-18,38,26,13,18,13,7,79,59,37,30.22,30.02,13,1,18,0.02
2013-4-19,47,34,19,30,20,12,79,58,37,30.24,29.98,18,4,27,0.00
2013-4-20,53,41,33,41,35,29,92,78,51,30.07,29.90,25,2,33,0.07
2013-4-21,60,44,30,39,30,18,93,63,21,30.13,29.92,23,4,31,0.01
2013-4-22,61,48,38,35,29,23,75,51,27,29.93,29.78,23,3,29,0.00
2013-4-23,48,39,30,31,18,10,68,45,24,30.08,29.88,16,4,21,0.00
2013-4-24,64,42,27,23,16,13,62,38,15,30.14,30.04,12,2,20,0.00
2013-4-25,68,49,30,24,19,15,57,34,16,30.10,29.83,20,5,25,0.00
2013-4-26,72,52,34,28,21,15,58,32,13,30.19,29.95,12,1,20,0.00
2013-4-27,77,54,34,30,24,18,58,33,16,30.25,30.02,14,2,17,0.00
2013-4-28,78,57,37,31,26,20,56,33,16,30.10,29.83,20,4,27,0.00
2013-4-29,78,61,41,36,29,24,60,32,17,29.91,29.66,26,6,33,0.00
2013-4-30,73,58,42,42,31,25,81,39,20,29.89,29.55,30,6,45,0.09
2013-5-1,52,42,34,37,27,16,93,61,28,30.37,29.86,18,3,25,0.34
2013-5-2,57,41,25,25,18,13,72,42,19,30.54,30.35,13,2,21,0.00
2013-5-3,69,48,28,26,21,15,66,38,15,30.36,29.90,13,2,16,0.00
2013-5-4,80,55,34,32,25,19,61,35,14,29.95,29.77,18,3,38,0.00
2013-5-5,71,58,45,36,30,22,56,36,17,29.94,29.84,21,4,30,0.00
2013-5-6,67,53,45,45,36,26,92,55,30,29.99,29.84,22,4,33,0.06
2013-5-7,67,48,39,47,42,37,94,80,39,30.01,29.90,13,2,19,0.11
2013-5-8,48,44,40,44,40,36,92,87,72,30.04,29.91,18,4,25,0.15
2013-5-9,76,52,40,46,40,34,94,68,28,30.11,29.97,15,3,21,0.01
2013-5-10,76,55,38,44,36,31,86,54,21,30.22,30.09,15,2,23,0.00
2013-5-11,78,57,41,41,34,30,75,46,21,30.33,30.17,25,3,33,0.00
2013-5-12,80,61,43,44,37,33,71,44,21,30.29,30.10,10,1,14,0.00
2013-5-13,84,65,46,42,37,30,66,40,18,30.26,30.03,15,3,20,0.00
2013-5-14,86,65,48,44,39,34,67,41,20,30.10,29.89,22,4,32,0.00
2013-5-15,79,64,52,49,42,38,79,48,28,29.99,29.82,22,4,30,0.01
2013-5-16,82,64,45,46,39,31,82,47,18,29.96,29.75,22,6,30,0.00
2013-5-17,81,65,46,39,29,21,58,30,11,29.90,29.77,27,6,35,0.00
2013-5-18,67,57,47,51,36,24,80,46,24,29.95,29.84,31,4,37,0.08
2013-5-19,63,51,40,42,36,30,84,60,30,29.95,29.84,20,4,25,0.01
2013-5-20,63,52,41,44,38,33,88,60,37,30.05,29.92,23,3,34,0.02
2013-5-21,72,58,44,40,35,32,73,45,25,30.07,29.83,16,2,20,0.00
2013-5-22,84,66,45,39,31,25,65,33,13,29.88,29.68,26,7,36,0.00
2013-5-23,86,73,55,34,25,16,38,18,9,29.85,29.68,34,9,44,0.00
2013-5-24,83,69,51,30,22,16,40,18,10,29.99,29.78,25,8,34,0.00
2013-5-25,85,66,44,31,24,19,48,23,10,30.00,29.83,24,6,31,0.00
2013-5-26,84,70,45,34,26,18,46,21,10,29.99,29.80,22,9,28,0.00
2013-5-27,80,64,42,29,24,18,48,23,13,29.92,29.72,21,5,26,0.00
2013-5-28,77,60,45,43,30,22,79,34,17,29.78,29.57,28,5,33,0.00
2013-5-29,67,52,43,49,42,38,93,73,36,29.79,29.66,20,3,22,0.12
2013-5-30,71,56,40,40,31,20,86,46,18,29.92,29.76,23,8,30,0.00
2013-5-31,72,60,42,31,24,15,54,27,12,30.11,29.88,24,5,32,0.00
2013-6-1,86,62,42,37,29,21,55,30,16,30.21,30.02,12,1,20,0.00
2013-6-2,86,66,42,36,30,24,62,31,11,30.09,29.78,22,5,29,0.00
2013-6-3,88,69,46,38,31,25,48,27,12,29.93,29.76,27,6,40,0.00
2013-6-4,87,68,46,37,30,20,48,26,14,30.01,29.82,24,5,33,0.00
2013-6-5,83,66,46,38,32,26,55,30,16,30.06,29.93,16,3,21,0.00
2013-6-6,86,67,46,38,33,29,53,31,14,30.09,29.93,15,4,22,0.00
2013-6-7,88,70,53,43,37,32,52,31,17,30.04,29.84,20,3,28,0.00
2013-6-8,90,72,53,43,37,31,54,32,15,29.98,29.85,17,2,27,0.00
2013-6-9,97,74,51,43,36,30,51,28,14,30.09,29.91,15,2,21,0.00
2013-6-10,97,77,54,44,35,24,48,25,11,30.02,29.82,22,5,29,0.00
2013-6-11,89,74,56,38,29,25,38,21,11,30.06,29.88,31,8,40,0.00
2013-6-12,92,74,54,38,31,25,37,22,11,30.11,29.97,19,4,28,0.00
2013-6-13,91,75,58,52,35,28,47,24,13,30.07,29.83,38,7,45,0.05
2013-6-14,90,72,53,38,29,14,52,24,9,30.04,29.86,20,5,26,0.00
2013-6-15,90,70,47,36,28,18,38,23,12,30.06,29.93,27,6,36,0.00
2013-6-16,93,71,57,48,40,34,45,33,19,30.15,29.99,20,3,29,0.00
2013-6-17,95,73,55,44,39,27,58,33,11,30.12,29.96,20,4,29,0.00
2013-6-18,92,74,56,42,32,16,45,25,10,30.03,29.77,24,5,31,0.00
2013-6-19,91,72,49,32,22,16,36,17,7,29.86,29.69,31,7,42,0.00
2013-6-20,90,71,48,31,23,14,36,17,9,29.95,29.78,26,5,35,0.00
2013-6-21,90,72,48,32,24,18,36,18,9,29.97,29.80,25,5,46,0.00
2013-6-22,88,71,49,32,26,20,37,20,10,29.93,29.81,23,6,34,0.00
2013-6-23,90,71,49,33,28,21,38,21,11,29.99,29.75,18,4,27,0.00
2013-6-24,88,71,52,34,28,24,42,22,11,29.90,29.79,30,7,40,0.00
2013-6-25,89,74,56,40,35,29,41,25,16,30.04,29.85,20,5,29,0.00
2013-6-26,96,76,54,42,36,29,47,26,12,30.15,30.03,21,4,25,0.00
2013-6-27,108,81,58,46,38,30,39,24,11,30.27,30.11,13,4,18,0.00
2013-6-28,105,82,62,46,40,34,41,24,11,30.27,30.06,13,3,19,0.00
2013-6-29,99,80,65,65,44,38,57,29,15,30.18,29.99,18,2,23,0.04
2013-6-30,96,78,59,49,45,40,54,33,17,30.18,29.98,20,4,27,0.00
2013-7-1,96,79,61,48,43,38,52,30,16,30.22,30.05,20,4,28,0.00
2013-7-2,95,80,62,48,41,36,47,27,16,30.18,30.00,18,5,24,0.00
2013-7-3,95,73,58,52,41,35,65,34,14,30.12,29.95,31,4,42,0.00
2013-7-4,95,77,58,51,46,41,68,38,17,30.07,29.85,13,3,17,0.00
2013-7-5,94,78,62,57,51,46,79,43,22,30.00,29.79,24,4,36,0.04
2013-7-6,94,81,61,56,50,46,77,37,21,30.05,29.88,22,4,29,0.02
2013-7-7,97,74,56,60,50,41,80,50,16,30.12,29.92,30,3,40,0.22
2013-7-8,93,83,58,56,48,42,77,33,18,30.19,30.04,21,5,27,0.00
2013-7-9,105,80,61,49,44,39,53,31,14,30.24,30.06,18,3,25,0.00
2013-7-10,101,82,62,48,40,33,47,25,11,30.17,29.93,16,3,22,0.00
2013-7-11,98,77,59,51,41,32,39,28,18,30.08,29.86,25,4,33,0.00
2013-7-12,91,78,70,56,54,49,62,46,24,30.10,29.96,26,5,33,0.00
2013-7-13,92,76,62,60,54,47,88,52,23,30.17,30.00,19,4,27,0.02
2013-7-14,97,75,62,62,55,50,87,54,24,30.21,30.02,18,4,27,0.07
2013-7-15,100,77,61,54,52,46,70,44,17,30.11,29.89,17,3,22,0.00
2013-7-16,95,75,61,56,53,49,67,47,24,30.12,29.95,14,2,19,0.00
2013-7-17,93,76,62,60,55,51,80,51,25,30.23,30.06,14,3,21,0.01
2013-7-18,97,75,61,59,56,51,82,55,25,30.24,30.02,17,2,22,0.00
2013-7-19,100,78,62,57,52,45,79,46,18,30.19,29.94,14,2,19,0.00
2013-7-20,98,79,59,53,44,33,67,35,11,30.10,29.86,15,2,23,0.00
2013-7-21,102,79,58,44,38,34,46,26,11,30.03,29.86,15,2,20,0.00
2013-7-22,103,82,63,48,36,22,41,22,7,30.09,29.91,15,2,20,0.00
2013-7-23,104,79,57,38,31,25,32,19,9,30.11,29.96,16,3,24,0.00
2013-7-24,92,77,64,48,40,28,42,27,19,30.14,30.01,25,3,39,0.00
2013-7-25,94,74,60,63,49,43,72,45,21,30.18,30.04,19,3,25,0.06
2013-7-26,101,77,58,52,45,36,68,38,13,30.26,30.04,13,2,18,0.00
2013-7-27,92,72,61,56,46,36,63,41,23,30.16,29.93,24,5,37,0.00
2013-7-28,78,66,60,64,58,52,93,77,43,30.04,29.90,13,2,17,0.32
2013-7-29,83,69,57,57,53,44,87,60,29,30.18,30.01,23,6,30,0.00
2013-7-30,92,71,53,52,47,41,79,47,24,30.31,30.16,18,2,30,0.00
2013-7-31,94,74,56,48,43,38,62,37,16,30.32,30.10,17,4,23,0.00
2013-8-1,78,66,57,59,46,40,89,50,31,30.23,30.10,23,3,31,0.04
2013-8-2,90,70,54,58,52,47,92,60,26,30.17,30.00,19,4,25,0.00
2013-8-3,90,75,62,54,50,46,71,45,24,30.19,30.04,15,4,21,0.01
2013-8-4,94,72,57,56,50,45,70,49,20,30.20,30.06,28,4,35,0.00
2013-8-5,89,72,60,52,49,45,71,48,23,30.20,30.04,17,4,24,0.00
2013-8-6,86,68,56,53,48,42,74,51,24,30.13,30.04,20,2,23,0.00
2013-8-7,91,70,56,50,46,38,68,46,22,30.11,29.96,16,2,24,0.00
2013-8-8,89,69,58,50,45,40,60,45,20,30.13,29.97,19,2,28,0.00
2013-8-9,94,70,55,47,44,38,68,43,18,30.19,30.05,22,3,28,0.00
2013-8-10,84,68,55,46,42,38,66,41,21,30.24,30.13,27,6,39,0.00
2013-8-11,91,68,48,47,42,37,78,45,17,30.30,30.08,17,2,27,0.00
2013-8-12,90,69,53,53,42,38,66,41,20,30.20,30.07,24,3,33,0.09
2013-8-13,86,67,51,48,44,37,78,48,22,30.24,30.10,30,4,43,0.00
2013-8-14,90,70,51,56,40,34,64,37,16,30.24,30.07,17,2,25,0.03
2013-8-15,93,71,51,42,36,30,54,31,14,30.22,30.06,15,2,19,0.00
2013-8-16,98,74,52,39,33,28,45,25,10,30.22,30.05,12,2,16,0.00
2013-8-17,95,74,55,46,37,29,40,27,14,30.21,30.03,24,4,27,0.00
2013-8-18,95,74,60,59,45,40,67,38,18,30.20,30.03,19,3,33,0.18
2013-8-19,101,75,56,52,46,38,69,41,14,30.22,29.98,11,2,16,0.00
2013-8-20,90,73,60,55,47,41,77,42,24,30.16,30.01,30,3,40,0.02
2013-8-21,92,73,54,54,50,40,88,51,22,30.19,30.02,12,3,18,0.00
2013-8-22,92,75,63,53,48,43,57,40,23,30.22,30.01,16,2,21,0.00
2013-8-23,89,70,60,58,52,49,77,54,29,30.11,29.95,39,3,49,0.01
2013-8-24,87,71,57,54,48,38,80,50,19,30.14,30.02,18,4,26,0.00
2013-8-25,75,65,59,60,55,48,92,71,45,30.24,30.13,17,2,23,0.04
2013-8-26,81,68,58,60,56,52,93,69,38,30.27,30.13,16,2,23,0.00
2013-8-27,88,72,56,58,53,49,86,56,27,30.23,30.04,19,4,27,0.00
2013-8-28,92,75,57,55,49,42,78,45,18,30.18,30.03,17,3,22,0.00
2013-8-29,96,77,59,52,47,41,64,38,16,30.24,30.07,15,2,18,0.00
2013-8-30,91,76,65,54,50,46,55,42,25,30.24,30.08,18,3,26,0.00
2013-8-31,94,74,65,58,52,47,73,48,22,30.17,30.00,18,3,24,0.02
2013-9-1,94,75,60,55,52,42,77,49,21,30.15,29.97,12,2,17,0.00
2013-9-2,91,75,58,54,49,46,68,43,23,30.18,30.00,18,4,25,0.00
2013-9-3,94,76,59,53,48,39,65,40,16,30.20,30.04,17,3,22,0.00
2013-9-4,102,79,67,58,50,46,62,38,18,30.25,30.05,22,2,33,0.00
2013-9-5,95,77,64,61,51,45,67,43,19,30.26,30.06,14,2,19,0.00
2013-9-6,95,75,60,57,51,42,81,48,18,30.26,30.01,16,4,19,0.00
2013-9-7,98,75,61,55,49,44,65,43,17,30.18,29.95,12,2,18,0.02
2013-9-8,85,71,62,54,50,48,62,48,30,30.09,29.90,22,5,30,0.00
2013-9-9,66,60,58,58,54,49,93,81,59,30.05,29.98,25,1,29,0.42
2013-9-10,68,61,57,62,57,55,95,87,69,30.09,30.00,13,1,19,0.14
2013-9-11,70,62,58,63,58,55,95,87,63,30.16,30.06,13,1,18,0.17
2013-9-12,80,66,55,58,54,44,93,70,34,30.18,30.02,13,3,19,0.04
2013-9-13,81,65,56,58,53,45,93,70,31,30.12,29.86,20,1,28,0.08
2013-9-14,72,62,56,58,53,50,95,75,47,30.02,29.90,16,1,20,0.16
2013-9-15,76,62,55,58,53,50,89,72,45,30.13,30.01,7,1,12,0.00
2013-9-16,83,64,50,54,49,45,90,62,29,30.19,30.02,16,2,22,0.00
2013-9-17,79,61,51,59,50,44,81,67,37,30.11,29.86,26,2,33,0.02
2013-9-18,79,63,53,59,52,46,93,71,36,29.95,29.80,19,3,28,0.32
2013-9-19,74,59,46,50,41,29,92,58,21,30.10,29.94,15,2,19,0.01
2013-9-20,76,58,41,39,34,25,73,46,18,30.17,29.96,21,3,25,0.00
2013-9-21,80,63,47,49,38,33,63,43,24,30.04,29.78,22,4,31,0.00
2013-9-22,66,55,44,52,46,41,92,72,51,29.82,29.66,27,3,38,0.48
2013-9-23,64,52,44,47,42,37,94,70,40,30.15,29.77,14,3,19,0.07
2013-9-24,71,54,39,43,38,33,86,59,26,30.20,29.87,15,2,18,0.00
2013-9-25,78,62,43,40,33,27,66,38,18,29.88,29.49,34,10,45,0.00
2013-9-26,75,61,42,40,32,27,70,39,19,29.70,29.56,30,8,42,0.00
2013-9-27,60,45,34,47,40,32,92,83,48,30.14,29.68,24,3,31,0.44
2013-9-28,59,43,30,38,33,28,93,71,32,30.27,30.12,10,1,13,0.01
2013-9-29,66,48,32,39,33,28,89,61,29,30.23,29.99,18,3,26,0.00
2013-9-30,73,54,38,40,34,31,78,51,23,30.07,29.87,19,4,23,0.00
2013-10-1,75,56,40,41,34,31,74,48,22,30.06,29.88,17,3,25,0.00
2013-10-2,74,56,41,38,34,31,71,46,23,30.03,29.80,19,3,25,0.00
2013-10-3,72,50,32,37,33,29,91,56,23,29.93,29.59,28,6,39,0.19
2013-10-4,43,35,30,32,28,22,94,77,54,30.28,29.90,18,4,22,0.23
2013-10-5,54,38,30,31,26,20,85,63,35,30.39,30.28,8,1,11,0.00
2013-10-6,63,42,28,36,29,23,82,62,32,30.42,30.23,9,2,16,0.00
2013-10-7,68,48,33,40,34,28,85,61,29,30.29,30.00,14,1,17,0.00
2013-10-8,72,52,37,39,33,27,80,52,23,30.02,29.74,25,4,35,0.00
2013-10-9,71,52,40,38,32,26,72,47,19,29.86,29.74,18,1,24,0.00
2013-10-10,57,46,40,43,40,30,93,81,42,29.81,29.64,22,3,29,0.50
2013-10-11,53,45,40,42,38,36,91,78,55,30.06,29.77,16,7,21,0.01
2013-10-12,59,44,33,40,34,30,91,70,36,30.13,29.98,10,1,12,0.01
2013-10-13,67,50,39,44,36,31,87,60,32,30.04,29.80,23,4,31,0.07
2013-10-14,48,42,38,44,38,36,95,88,77,30.13,29.88,21,1,27,0.54
2013-10-15,50,41,33,38,32,26,92,72,48,30.15,30.03,9,1,18,0.01
2013-10-16,50,38,26,30,26,22,89,64,41,30.17,30.06,10,1,19,0.00
2013-10-17,54,40,28,34,26,20,86,60,27,30.14,29.91,16,2,22,0.00
2013-10-18,51,41,31,34,24,18,75,52,31,30.19,29.99,12,1,21,0.00
2013-10-19,56,39,25,29,24,18,79,56,29,30.22,30.01,15,2,20,0.00
2013-10-20,58,42,29,33,28,23,80,60,35,30.05,29.89,8,1,10,0.00
2013-10-21,60,42,30,33,27,24,84,58,30,30.20,30.00,10,1,14,0.00
2013-10-22,62,44,29,34,28,23,82,57,31,30.29,30.11,7,1,11,0.00
2013-10-23,65,46,31,36,30,26,81,57,28,30.22,30.04,9,2,11,0.00
2013-10-24,66,46,33,36,28,24,75,53,23,30.21,30.04,12,2,17,0.00
2013-10-25,60,46,35,36,31,26,71,55,38,30.23,30.09,10,1,13,0.00
2013-10-26,64,46,32,37,30,25,84,58,28,30.33,30.15,6,1,10,0.00
2013-10-27,62,45,31,36,29,23,76,56,32,30.18,29.77,15,2,22,0.00
2013-10-28,66,52,38,34,27,21,69,42,20,29.78,29.61,29,4,40,0.00
2013-10-29,57,43,32,39,32,22,93,73,26,29.93,29.68,34,5,42,0.48
2013-10-30,43,36,32,37,33,30,94,90,76,29.95,29.85,22,1,29,0.14
2013-10-31,42,36,32,36,32,31,100,85,67,30.09,29.93,14,2,20,0.04
2013-11-1,53,40,32,37,32,26,92,73,41,30.27,30.05,8,1,12,0.00
2013-11-2,53,38,27,31,27,23,92,67,37,30.28,29.88,7,2,11,0.00
2013-11-3,57,39,28,33,27,20,85,66,33,29.93,29.60,25,6,32,0.00
2013-11-4,41,32,22,29,23,16,91,69,47,29.95,29.78,12,1,16,0.01
2013-11-5,39,29,20,27,18,12,92,67,36,30.26,29.90,8,0,13,0.04
2013-11-6,42,28,17,21,16,10,79,63,37,30.44,30.25,14,2,19,0.00
2013-11-7,50,34,22,27,22,16,81,63,37,30.46,30.10,7,0,11,0.00
2013-11-8,57,38,25,30,24,20,86,61,29,30.12,29.95,18,3,25,0.00
2013-11-9,57,39,26,31,25,20,80,59,32,30.21,30.09,7,0,17,0.00
2013-11-10,59,40,27,30,25,21,79,57,30,30.30,30.15,11,1,14,0.00
2013-11-11,58,39,27,30,24,20,78,58,30,30.40,30.24,6,1,10,0.00
2013-11-12,60,41,30,30,24,20,76,53,27,30.52,30.34,8,2,12,0.00
2013-11-13,52,38,27,28,23,18,69,56,34,30.40,30.08,7,1,11,0.00
2013-11-14,53,40,30,32,25,20,82,58,31,30.13,29.77,10,1,12,0.00
2013-11-15,51,36,24,35,26,18,83,68,39,29.78,29.48,23,2,32,0.01
2013-11-16,42,35,29,35,31,26,92,86,72,29.64,29.45,25,6,34,0.13
2013-11-17,50,38,30,33,29,25,87,72,47,30.14,29.64,16,2,21,0.01
2013-11-18,51,35,25,30,25,21,88,69,40,30.26,30.06,7,0,12,0.00
2013-11-19,44,35,26,34,27,21,87,75,54,30.07,29.82,6,0,9,0.01
2013-11-20,48,39,29,39,34,26,93,82,62,29.90,29.76,4,0,6,0.05
2013-11-21,46,35,25,40,32,19,93,87,72,30.26,29.82,10,1,18,0.20
2013-11-22,34,29,23,29,23,18,92,79,68,30.28,30.17,11,4,15,0.00
2013-11-23,41,34,29,33,30,27,94,86,72,30.25,30.07,7,1,11,0.13
2013-11-24,39,34,30,36,32,28,94,91,86,30.09,29.96,12,2,17,0.01
2013-11-25,42,30,24,30,24,20,93,79,53,30.31,30.02,5,0,7,0.01
2013-11-26,43,29,20,29,22,17,92,77,52,30.40,30.27,7,1,12,0.00
2013-11-27,44,30,21,27,22,17,86,73,43,30.32,30.10,6,1,6,0.00
2013-11-28,44,30,21,29,23,17,88,76,52,30.19,30.07,10,1,12,0.00
2013-11-29,32,30,27,29,27,24,92,87,84,30.33,30.18,6,1,9,0.00
2013-11-30,35,30,27,27,26,23,89,83,69,30.36,30.22,6,1,11,0.00
2013-12-1,33,31,28,28,26,25,90,83,77,30.34,30.18,9,1,12,0.00
2013-12-2,34,31,29,28,27,26,92,83,77,30.20,29.74,10,2,13,0.00
2013-12-3,38,31,24,30,26,22,92,83,70,29.74,29.35,10,1,14,0.00
2013-12-4,24,11,-6,22,6,-11,92,81,66,29.94,29.36,16,6,20,0.00
2013-12-5,10,-3,-13,2,-8,-18,92,78,68,29.94,29.79,6,1,9,0.03
2013-12-6,14,3,-3,6,-2,-8,89,79,68,30.02,29.87,5,0,9,0.00
2013-12-7,21,14,3,18,11,-1,96,84,78,30.01,29.55,5,0,7,0.00
2013-12-8,20,14,1,18,10,-5,90,82,68,29.95,29.52,27,6,33,0.00
2013-12-9,13,3,-6,4,-3,-12,88,76,63,30.40,29.94,15,3,18,0.00
2013-12-10,12,1,-11,4,-5,-16,92,75,62,30.42,30.20,8,1,10,0.00
2013-12-11,19,8,-2,10,2,-6,93,76,64,30.47,30.27,8,0,10,0.00
2013-12-12,22,10,1,14,5,-3,93,80,68,30.47,30.11,8,0,10,0.01
2013-12-13,24,13,3,16,8,-1,87,81,67,30.20,29.98,3,0,5,0.00
2013-12-14,28,17,8,20,12,4,87,81,66,30.42,30.19,6,0,7,0.00
2013-12-15,30,18,10,20,13,6,92,79,63,30.45,30.33,10,1,13,0.00
2013-12-16,31,20,11,22,14,7,92,80,65,30.43,30.32,6,1,9,0.00
2013-12-17,34,21,12,23,15,9,89,80,59,30.48,30.25,6,0,9,0.01
2013-12-18,32,23,14,24,18,10,92,81,66,30.26,29.77,11,1,14,0.00
2013-12-19,39,30,22,30,24,18,88,80,64,29.81,29.57,11,1,15,0.01
2013-12-20,35,31,22,32,27,18,93,87,74,29.68,29.61,11,1,15,0.05
2013-12-21,31,24,19,25,19,12,89,82,72,29.88,29.57,8,0,11,0.01
2013-12-22,32,24,16,21,16,12,85,74,59,30.21,29.88,16,4,20,0.00
2013-12-23,34,26,21,23,19,15,82,74,59,30.39,30.18,15,3,20,0.00
2013-12-24,35,25,13,28,19,8,89,80,66,30.39,30.15,17,2,27,0.00
2013-12-25,28,16,8,15,8,3,83,72,57,30.49,30.36,10,2,12,0.00
2013-12-26,30,18,8,16,9,2,79,68,51,30.44,30.29,10,2,13,0.00
2013-12-27,35,22,14,21,14,8,80,70,51,30.42,30.17,8,1,12,0.00
2013-12-28,34,23,14,22,16,10,85,76,58,30.18,29.91,5,0,6,0.00
2013-12-29,33,24,14,23,15,7,83,68,45,30.19,30.00,5,1,7,0.00
2013-12-30,34,22,12,20,14,7,81,71,56,30.33,30.14,8,1,10,0.00
2013-12-31,35,26,18,26,20,12,89,79,68,30.26,30.07,11,1,14,0.00
2014-1-1,41,29,20,26,20,12,84,68,37,30.29,30.02,12,2,20,0.00
2014-1-2,34,21,13,19,12,8,79,69,49,30.35,30.17,9,2,13,0.00